TAM3942 SBSP-SBRJ
Flight info
| Callsign | TAM3942 |
|---|---|
| Flight time | 0h 36m |
| Altitude | 27000 |
| Route | NIBRU UZ171 KEVUN |
| Aircraft | A319/M-SDE3FGHIRWY/LB1 |
Departure
| Time | 2026-05-05 03:24 |
|---|---|
| Airport | Congonhas–Deputado Freitas Nobre Airport (SBSP) |
Arrival
| Time | 2026-05-05 04:01 |
|---|---|
| Airport | Santos Dumont Airport (SBRJ) |
| Time | Latitude | Longitude | Altitude | Speed | Heading |
|---|---|---|---|---|---|
| 2026-05-05 03:04 | -23.62847 | -46.65738 | 2625 ft | 0 kts | 237° |
| 2026-05-05 03:13 | -23.62837 | -46.65720 | 2625 ft | 3 kts | 250° |
| 2026-05-05 03:13 | -23.62833 | -46.65699 | 2625 ft | 3 kts | 281° |
| 2026-05-05 03:14 | -23.62840 | -46.65682 | 2626 ft | 2 kts | 324° |
| 2026-05-05 03:14 | -23.62842 | -46.65681 | 2626 ft | 0 kts | 326° |
| 2026-05-05 03:18 | -23.62831 | -46.65689 | 2625 ft | 6 kts | 326° |
| 2026-05-05 03:18 | -23.62766 | -46.65730 | 2623 ft | 14 kts | 337° |
| 2026-05-05 03:19 | -23.62532 | -46.65847 | 2614 ft | 22 kts | 327° |
| 2026-05-05 03:19 | -23.62396 | -46.65942 | 2609 ft | 25 kts | 327° |
| 2026-05-05 03:19 | -23.62246 | -46.66044 | 2604 ft | 26 kts | 330° |
| 2026-05-05 03:20 | -23.62124 | -46.66121 | 2593 ft | 0 kts | 327° |
| 2026-05-05 03:20 | -23.62122 | -46.66122 | 2593 ft | 0 kts | 327° |
| 2026-05-05 03:20 | -23.62113 | -46.66128 | 2593 ft | 3 kts | 330° |
| 2026-05-05 03:21 | -23.62086 | -46.66139 | 2593 ft | 5 kts | 349° |
| 2026-05-05 03:21 | -23.62050 | -46.66124 | 2596 ft | 6 kts | 42° |
| 2026-05-05 03:21 | -23.62043 | -46.66085 | 2597 ft | 5 kts | 107° |
| 2026-05-05 03:21 | -23.62063 | -46.66063 | 2594 ft | 4 kts | 146° |
| 2026-05-05 03:22 | -23.62071 | -46.66058 | 2590 ft | 0 kts | 149° |
| 2026-05-05 03:24 | -23.62093 | -46.66043 | 2595 ft | 21 kts | 149° |
| 2026-05-05 03:24 | -23.62457 | -46.65791 | 2614 ft | 99 kts | 147° |
| 2026-05-05 03:24 | -23.63216 | -46.65262 | 2692 ft | 152 kts | 145° |
| 2026-05-05 03:24 | -23.64079 | -46.64635 | 3424 ft | 147 kts | 144° |
| 2026-05-05 03:25 | -23.64809 | -46.63846 | 3917 ft | 158 kts | 117° |
| 2026-05-05 03:25 | -23.65332 | -46.62710 | 4230 ft | 178 kts | 116° |
| 2026-05-05 03:25 | -23.65952 | -46.61432 | 4555 ft | 201 kts | 117° |
| 2026-05-05 03:25 | -23.66661 | -46.60013 | 4864 ft | 226 kts | 118° |
| 2026-05-05 03:26 | -23.67461 | -46.58426 | 5279 ft | 251 kts | 119° |
| 2026-05-05 03:26 | -23.68347 | -46.56676 | 5735 ft | 275 kts | 119° |
| 2026-05-05 03:26 | -23.69290 | -46.54813 | 6478 ft | 286 kts | 120° |
| 2026-05-05 03:26 | -23.70259 | -46.52892 | 7326 ft | 292 kts | 120° |
| 2026-05-05 03:27 | -23.71198 | -46.50918 | 8225 ft | 296 kts | 113° |
| 2026-05-05 03:27 | -23.71725 | -46.48731 | 9137 ft | 301 kts | 97° |
| 2026-05-05 03:27 | -23.71702 | -46.46445 | 10071 ft | 304 kts | 82° |
| 2026-05-05 03:27 | -23.71364 | -46.44123 | 10684 ft | 319 kts | 81° |
| 2026-05-05 03:28 | -23.71004 | -46.41638 | 11003 ft | 342 kts | 81° |
| 2026-05-05 03:28 | -23.70628 | -46.39027 | 11611 ft | 353 kts | 81° |
| 2026-05-05 03:28 | -23.70249 | -46.36363 | 12358 ft | 358 kts | 82° |
| 2026-05-05 03:28 | -23.69868 | -46.33665 | 13143 ft | 362 kts | 82° |
| 2026-05-05 03:29 | -23.69482 | -46.30931 | 13915 ft | 367 kts | 82° |
| 2026-05-05 03:29 | -23.69090 | -46.28163 | 14598 ft | 371 kts | 82° |
| 2026-05-05 03:29 | -23.68687 | -46.25366 | 15252 ft | 376 kts | 82° |
| 2026-05-05 03:29 | -23.68283 | -46.22571 | 15898 ft | 380 kts | 82° |
| 2026-05-05 03:30 | -23.67869 | -46.19711 | 16539 ft | 384 kts | 82° |
| 2026-05-05 03:30 | -23.67454 | -46.16817 | 17172 ft | 388 kts | 82° |
| 2026-05-05 03:30 | -23.67034 | -46.13891 | 17805 ft | 392 kts | 82° |
| 2026-05-05 03:30 | -23.66608 | -46.10936 | 18425 ft | 396 kts | 82° |
| 2026-05-05 03:31 | -23.66178 | -46.07949 | 18961 ft | 401 kts | 82° |
| 2026-05-05 03:31 | -23.65746 | -46.04936 | 19509 ft | 404 kts | 82° |
| 2026-05-05 03:31 | -23.65310 | -46.01890 | 20057 ft | 408 kts | 82° |
| 2026-05-05 03:31 | -23.64874 | -45.98822 | 20623 ft | 412 kts | 83° |
| 2026-05-05 03:32 | -23.64432 | -45.95724 | 21183 ft | 416 kts | 82° |
| 2026-05-05 03:32 | -23.63981 | -45.92592 | 21743 ft | 420 kts | 82° |
| 2026-05-05 03:32 | -23.63525 | -45.89444 | 22304 ft | 423 kts | 82° |
| 2026-05-05 03:32 | -23.63061 | -45.86249 | 22861 ft | 428 kts | 82° |
| 2026-05-05 03:33 | -23.62593 | -45.83033 | 23406 ft | 432 kts | 82° |
| 2026-05-05 03:33 | -23.62124 | -45.79782 | 23907 ft | 435 kts | 82° |
| 2026-05-05 03:33 | -23.61650 | -45.76508 | 24338 ft | 440 kts | 82° |
| 2026-05-05 03:33 | -23.61167 | -45.73197 | 24740 ft | 444 kts | 82° |
| 2026-05-05 03:34 | -23.60679 | -45.69863 | 25151 ft | 448 kts | 82° |
| 2026-05-05 03:34 | -23.60186 | -45.66497 | 25532 ft | 451 kts | 82° |
| 2026-05-05 03:34 | -23.59688 | -45.63105 | 25938 ft | 455 kts | 82° |
| 2026-05-05 03:34 | -23.59186 | -45.59687 | 26334 ft | 458 kts | 82° |
| 2026-05-05 03:35 | -23.58680 | -45.56245 | 26712 ft | 462 kts | 82° |
| 2026-05-05 03:35 | -23.58172 | -45.52768 | 27070 ft | 466 kts | 82° |
| 2026-05-05 03:35 | -23.57661 | -45.49271 | 27182 ft | 465 kts | 82° |
| 2026-05-05 03:35 | -23.57139 | -45.45841 | 27204 ft | 456 kts | 81° |
| 2026-05-05 03:36 | -23.56520 | -45.42468 | 27203 ft | 453 kts | 79° |
| 2026-05-05 03:36 | -23.55817 | -45.39131 | 27206 ft | 452 kts | 77° |
| 2026-05-05 03:36 | -23.55069 | -45.35810 | 27206 ft | 451 kts | 77° |
| 2026-05-05 03:36 | -23.54306 | -45.32485 | 27206 ft | 451 kts | 77° |
| 2026-05-05 03:37 | -23.53553 | -45.29163 | 27205 ft | 451 kts | 77° |
| 2026-05-05 03:37 | -23.53068 | -45.26967 | 27207 ft | 451 kts | 78° |
| 2026-05-05 03:37 | -23.52350 | -45.23638 | 27209 ft | 451 kts | 78° |
| 2026-05-05 03:37 | -23.51648 | -45.20314 | 27210 ft | 451 kts | 78° |
| 2026-05-05 03:38 | -23.50949 | -45.16984 | 27204 ft | 451 kts | 78° |
| 2026-05-05 03:38 | -23.50248 | -45.13654 | 27210 ft | 450 kts | 78° |
| 2026-05-05 03:38 | -23.49546 | -45.10338 | 27211 ft | 450 kts | 78° |
| 2026-05-05 03:38 | -23.48838 | -45.07020 | 27205 ft | 449 kts | 78° |
| 2026-05-05 03:39 | -23.48127 | -45.03703 | 27203 ft | 449 kts | 78° |
| 2026-05-05 03:39 | -23.47417 | -45.00396 | 27200 ft | 449 kts | 78° |
| 2026-05-05 03:39 | -23.46705 | -44.97088 | 26987 ft | 450 kts | 78° |
| 2026-05-05 03:39 | -23.45989 | -44.93764 | 26271 ft | 451 kts | 77° |
| 2026-05-05 03:40 | -23.45267 | -44.90454 | 25767 ft | 446 kts | 77° |
| 2026-05-05 03:40 | -23.44538 | -44.87182 | 25242 ft | 443 kts | 77° |
| 2026-05-05 03:40 | -23.43809 | -44.83939 | 24722 ft | 440 kts | 77° |
| 2026-05-05 03:40 | -23.43085 | -44.80718 | 24225 ft | 436 kts | 77° |
| 2026-05-05 03:41 | -23.42371 | -44.77516 | 23721 ft | 434 kts | 77° |
| 2026-05-05 03:41 | -23.41664 | -44.74340 | 23178 ft | 430 kts | 77° |
| 2026-05-05 03:41 | -23.40961 | -44.71185 | 22699 ft | 426 kts | 77° |
| 2026-05-05 03:41 | -23.40264 | -44.68062 | 22209 ft | 423 kts | 77° |
| 2026-05-05 03:42 | -23.39572 | -44.64963 | 21716 ft | 420 kts | 77° |
| 2026-05-05 03:42 | -23.38891 | -44.61923 | 21240 ft | 417 kts | 77° |
| 2026-05-05 03:42 | -23.38205 | -44.58858 | 20720 ft | 415 kts | 77° |
| 2026-05-05 03:42 | -23.37523 | -44.55813 | 20204 ft | 413 kts | 77° |
| 2026-05-05 03:43 | -23.36845 | -44.52783 | 19689 ft | 412 kts | 77° |
| 2026-05-05 03:43 | -23.36169 | -44.49759 | 19169 ft | 410 kts | 77° |
| 2026-05-05 03:43 | -23.35493 | -44.46742 | 18652 ft | 409 kts | 77° |
| 2026-05-05 03:43 | -23.34828 | -44.43779 | 18080 ft | 408 kts | 76° |
| 2026-05-05 03:44 | -23.33916 | -44.40896 | 17562 ft | 404 kts | 65° |
| 2026-05-05 03:44 | -23.32727 | -44.38145 | 17047 ft | 401 kts | 64° |
| 2026-05-05 03:44 | -23.31546 | -44.35413 | 16535 ft | 397 kts | 64° |
| 2026-05-05 03:44 | -23.30380 | -44.32704 | 16036 ft | 394 kts | 64° |
| 2026-05-05 03:45 | -23.29226 | -44.30018 | 15548 ft | 391 kts | 64° |
| 2026-05-05 03:45 | -23.28092 | -44.27374 | 15030 ft | 380 kts | 65° |
| 2026-05-05 03:45 | -23.26995 | -44.24812 | 14549 ft | 369 kts | 65° |
| 2026-05-05 03:45 | -23.25926 | -44.22316 | 14076 ft | 358 kts | 65° |
| 2026-05-05 03:46 | -23.24884 | -44.19895 | 13562 ft | 349 kts | 65° |
| 2026-05-05 03:46 | -23.23866 | -44.17535 | 13090 ft | 340 kts | 64° |
| 2026-05-05 03:46 | -23.22863 | -44.15221 | 12631 ft | 338 kts | 64° |
| 2026-05-05 03:46 | -23.21861 | -44.12910 | 12161 ft | 338 kts | 64° |
| 2026-05-05 03:47 | -23.20860 | -44.10594 | 11686 ft | 338 kts | 64° |
| 2026-05-05 03:47 | -23.19862 | -44.08281 | 11209 ft | 338 kts | 64° |
| 2026-05-05 03:47 | -23.18854 | -44.05997 | 10963 ft | 330 kts | 63° |
| 2026-05-05 03:47 | -23.17852 | -44.03804 | 10808 ft | 320 kts | 63° |
| 2026-05-05 03:48 | -23.16863 | -44.01674 | 10623 ft | 313 kts | 63° |
| 2026-05-05 03:48 | -23.15882 | -43.99569 | 10459 ft | 313 kts | 62° |
| 2026-05-05 03:48 | -23.14921 | -43.97445 | 10316 ft | 312 kts | 64° |
| 2026-05-05 03:48 | -23.14001 | -43.95318 | 10180 ft | 310 kts | 64° |
| 2026-05-05 03:49 | -23.13096 | -43.93180 | 10012 ft | 311 kts | 65° |
| 2026-05-05 03:49 | -23.12208 | -43.91073 | 9837 ft | 304 kts | 65° |
| 2026-05-05 03:49 | -23.11326 | -43.88983 | 9674 ft | 303 kts | 65° |
| 2026-05-05 03:49 | -23.10444 | -43.86900 | 9516 ft | 303 kts | 65° |
| 2026-05-05 03:50 | -23.09560 | -43.84824 | 9353 ft | 302 kts | 65° |
| 2026-05-05 03:50 | -23.08677 | -43.82763 | 9191 ft | 302 kts | 65° |
| 2026-05-05 03:50 | -23.07783 | -43.80678 | 9030 ft | 304 kts | 65° |
| 2026-05-05 03:50 | -23.06897 | -43.78606 | 8862 ft | 302 kts | 65° |
| 2026-05-05 03:51 | -23.06012 | -43.76542 | 8704 ft | 302 kts | 65° |
| 2026-05-05 03:51 | -23.05125 | -43.74474 | 8547 ft | 301 kts | 65° |
| 2026-05-05 03:51 | -23.04242 | -43.72420 | 8384 ft | 299 kts | 65° |
| 2026-05-05 03:51 | -23.03361 | -43.70371 | 8225 ft | 299 kts | 65° |
| 2026-05-05 03:52 | -23.02478 | -43.68327 | 7981 ft | 300 kts | 65° |
| 2026-05-05 03:52 | -23.01592 | -43.66299 | 7705 ft | 295 kts | 65° |
| 2026-05-05 03:52 | -23.00708 | -43.64284 | 7389 ft | 296 kts | 65° |
| 2026-05-05 03:52 | -22.99824 | -43.62275 | 7056 ft | 292 kts | 65° |
| 2026-05-05 03:53 | -22.98953 | -43.60302 | 6828 ft | 288 kts | 65° |
| 2026-05-05 03:53 | -22.98098 | -43.58363 | 6655 ft | 288 kts | 65° |
| 2026-05-05 03:53 | -22.97222 | -43.56368 | 6479 ft | 288 kts | 65° |
| 2026-05-05 03:53 | -22.96362 | -43.54415 | 6308 ft | 286 kts | 65° |
| 2026-05-05 03:54 | -22.95503 | -43.52467 | 6140 ft | 286 kts | 65° |
| 2026-05-05 03:54 | -22.94650 | -43.50525 | 5969 ft | 285 kts | 65° |
| 2026-05-05 03:54 | -22.93822 | -43.48605 | 5644 ft | 282 kts | 65° |
| 2026-05-05 03:54 | -22.93000 | -43.46660 | 5327 ft | 278 kts | 65° |
| 2026-05-05 03:55 | -22.92209 | -43.44781 | 5034 ft | 277 kts | 65° |
| 2026-05-05 03:55 | -22.91412 | -43.42894 | 4733 ft | 274 kts | 64° |
| 2026-05-05 03:55 | -22.90622 | -43.41021 | 4495 ft | 273 kts | 64° |
| 2026-05-05 03:55 | -22.89836 | -43.39157 | 4257 ft | 271 kts | 64° |
| 2026-05-05 03:56 | -22.89055 | -43.37305 | 4019 ft | 269 kts | 64° |
| 2026-05-05 03:56 | -22.88405 | -43.35408 | 3779 ft | 269 kts | 78° |
| 2026-05-05 03:56 | -22.88324 | -43.33381 | 3544 ft | 270 kts | 90° |
| 2026-05-05 03:56 | -22.88400 | -43.31356 | 3304 ft | 268 kts | 89° |
| 2026-05-05 03:57 | -22.88470 | -43.29358 | 3061 ft | 261 kts | 90° |
| 2026-05-05 03:57 | -22.88536 | -43.27456 | 2833 ft | 243 kts | 90° |
| 2026-05-05 03:57 | -22.88823 | -43.25725 | 2640 ft | 229 kts | 109° |
| 2026-05-05 03:57 | -22.89403 | -43.24135 | 2302 ft | 223 kts | 110° |
| 2026-05-05 03:58 | -22.89965 | -43.22603 | 2063 ft | 213 kts | 110° |
| 2026-05-05 03:58 | -22.90515 | -43.21156 | 1872 ft | 200 kts | 113° |
| 2026-05-05 03:58 | -22.91389 | -43.20044 | 1610 ft | 191 kts | 144° |
| 2026-05-05 03:58 | -22.92555 | -43.19475 | 1387 ft | 177 kts | 163° |
| 2026-05-05 03:59 | -22.93707 | -43.19203 | 1197 ft | 163 kts | 158° |
| 2026-05-05 03:59 | -22.94489 | -43.18471 | 966 ft | 142 kts | 114° |
| 2026-05-05 03:59 | -22.94629 | -43.17494 | 775 ft | 129 kts | 76° |
| 2026-05-05 03:59 | -22.94229 | -43.16659 | 590 ft | 128 kts | 49° |
| 2026-05-05 04:00 | -22.93461 | -43.16206 | 349 ft | 130 kts | 12° |
| 2026-05-05 04:00 | -22.92558 | -43.16205 | 229 ft | 131 kts | 359° |
| 2026-05-05 04:00 | -22.91654 | -43.16249 | 56 ft | 130 kts | 359° |
| 2026-05-05 04:00 | -22.90872 | -43.16294 | 27 ft | 76 kts | 355° |
| 2026-05-05 04:01 | -22.90593 | -43.16313 | 28 ft | 21 kts | 357° |
| 2026-05-05 04:01 | -22.90502 | -43.16330 | 28 ft | 12 kts | 319° |
| 2026-05-05 04:01 | -22.90493 | -43.16418 | 28 ft | 12 kts | 263° |
| 2026-05-05 04:01 | -22.90498 | -43.16507 | 30 ft | 12 kts | 268° |
| 2026-05-05 04:02 | -22.90543 | -43.16556 | 30 ft | 11 kts | 178° |
| 2026-05-05 04:02 | -22.90621 | -43.16551 | 30 ft | 12 kts | 177° |
| 2026-05-05 04:02 | -22.90707 | -43.16546 | 30 ft | 13 kts | 176° |
| 2026-05-05 04:02 | -22.90801 | -43.16544 | 30 ft | 14 kts | 184° |
| 2026-05-05 04:03 | -22.90903 | -43.16547 | 30 ft | 15 kts | 177° |
| 2026-05-05 04:03 | -22.91011 | -43.16540 | 30 ft | 16 kts | 175° |
| 2026-05-05 04:03 | -22.91085 | -43.16537 | 30 ft | 5 kts | 201° |
| 2026-05-05 04:03 | -22.91096 | -43.16571 | 30 ft | 5 kts | 265° |
| 2026-05-05 04:04 | -22.91097 | -43.16590 | 30 ft | 0 kts | 265° |